sensor_id;sensor_type;location;lat;lon;timestamp;temperature;humidity
76120;DHT22;64852;48.092;-1.640;2023-02-01T00:00:54;11.60;99.90
76120;DHT22;64852;48.092;-1.640;2023-02-01T00:03:20;11.90;99.90
76120;DHT22;64852;48.092;-1.640;2023-02-01T00:05:55;11.80;99.90
76120;DHT22;64852;48.092;-1.640;2023-02-01T00:08:21;11.70;99.90
76120;DHT22;64852;48.092;-1.640;2023-02-01T00:10:46;11.60;99.90
76120;DHT22;64852;48.092;-1.640;2023-02-01T00:13:12;11.70;99.90
76120;DHT22;64852;48.092;-1.640;2023-02-01T00:15:38;11.80;99.90
76120;DHT22;64852;48.092;-1.640;2023-02-01T00:18:03;11.80;99.90
76120;DHT22;64852;48.092;-1.640;2023-02-01T00:20:29;11.90;99.90
76120;DHT22;64852;48.092;-1.640;2023-02-01T00:22:54;11.80;99.90
76120;DHT22;64852;48.092;-1.640;2023-02-01T00:25:20;11.60;99.90
76120;DHT22;64852;48.092;-1.640;2023-02-01T00:27:49;11.70;99.90
76120;DHT22;64852;48.092;-1.640;2023-02-01T00:30:17;11.60;99.90
76120;DHT22;64852;48.092;-1.640;2023-02-01T00:32:43;11.90;99.90
76120;DHT22;64852;48.092;-1.640;2023-02-01T00:35:09;11.90;99.90
76120;DHT22;64852;48.092;-1.640;2023-02-01T00:37:34;11.70;99.90
76120;DHT22;64852;48.092;-1.640;2023-02-01T00:40:00;11.60;99.90
76120;DHT22;64852;48.092;-1.640;2023-02-01T00:42:25;11.60;99.90
76120;DHT22;64852;48.092;-1.640;2023-02-01T00:44:51;11.60;99.90
76120;DHT22;64852;48.092;-1.640;2023-02-01T00:47:17;11.80;99.90
76120;DHT22;64852;48.092;-1.640;2023-02-01T00:49:42;11.70;99.90
76120;DHT22;64852;48.092;-1.640;2023-02-01T00:52:08;11.60;99.90
76120;DHT22;64852;48.092;-1.640;2023-02-01T00:54:34;11.30;99.90
76120;DHT22;64852;48.092;-1.640;2023-02-01T00:57:01;11.30;99.90
76120;DHT22;64852;48.092;-1.640;2023-02-01T00:59:26;11.30;99.90
76120;DHT22;64852;48.092;-1.640;2023-02-01T01:01:52;11.30;99.90
76120;DHT22;64852;48.092;-1.640;2023-02-01T01:04:17;11.40;99.90
76120;DHT22;64852;48.092;-1.640;2023-02-01T01:06:43;11.50;99.90
76120;DHT22;64852;48.092;-1.640;2023-02-01T01:09:09;11.50;99.90
76120;DHT22;64852;48.092;-1.640;2023-02-01T01:11:36;11.40;99.90
76120;DHT22;64852;48.092;-1.640;2023-02-01T01:14:03;11.30;99.90
76120;DHT22;64852;48.092;-1.640;2023-02-01T01:16:30;11.40;99.90
76120;DHT22;64852;48.092;-1.640;2023-02-01T01:18:56;11.60;99.90
76120;DHT22;64852;48.092;-1.640;2023-02-01T01:21:22;11.70;99.90
76120;DHT22;64852;48.092;-1.640;2023-02-01T01:23:48;11.80;99.90
76120;DHT22;64852;48.092;-1.640;2023-02-01T01:26:20;11.80;99.90
76120;DHT22;64852;48.092;-1.640;2023-02-01T01:28:46;11.70;99.90
76120;DHT22;64852;48.092;-1.640;2023-02-01T01:31:14;11.70;99.90
76120;DHT22;64852;48.092;-1.640;2023-02-01T01:33:40;11.60;99.90
76120;DHT22;64852;48.092;-1.640;2023-02-01T01:36:07;11.60;99.90
76120;DHT22;64852;48.092;-1.640;2023-02-01T01:38:35;11.70;99.90
76120;DHT22;64852;48.092;-1.640;2023-02-01T01:41:01;11.90;99.90
76120;DHT22;64852;48.092;-1.640;2023-02-01T01:43:53;12.00;99.90
76120;DHT22;64852;48.092;-1.640;2023-02-01T01:46:25;11.90;99.90
76120;DHT22;64852;48.092;-1.640;2023-02-01T01:51:47;11.90;99.90
76120;DHT22;64852;48.092;-1.640;2023-02-01T01:54:18;11.80;99.90
76120;DHT22;64852;48.092;-1.640;2023-02-01T01:56:51;11.20;99.90
76120;DHT22;64852;48.092;-1.640;2023-02-01T01:59:20;11.60;99.90
76120;DHT22;64852;48.092;-1.640;2023-02-01T02:01:46;11.40;99.90
76120;DHT22;64852;48.092;-1.640;2023-02-01T02:04:12;11.50;99.90
76120;DHT22;64852;48.092;-1.640;2023-02-01T02:06:40;11.40;99.90
76120;DHT22;64852;48.092;-1.640;2023-02-01T02:09:09;11.60;99.90
76120;DHT22;64852;48.092;-1.640;2023-02-01T02:11:35;11.70;99.90
76120;DHT22;64852;48.092;-1.640;2023-02-01T02:14:01;11.50;99.90
76120;DHT22;64852;48.092;-1.640;2023-02-01T02:16:40;11.40;99.90
76120;DHT22;64852;48.092;-1.640;2023-02-01T02:24:54;11.40;99.90
76120;DHT22;64852;48.092;-1.640;2023-02-01T02:35:38;11.00;99.90
76120;DHT22;64852;48.092;-1.640;2023-02-01T02:43:57;11.40;99.90
76120;DHT22;64852;48.092;-1.640;2023-02-01T02:46:47;11.60;99.90
76120;DHT22;64852;48.092;-1.640;2023-02-01T02:49:49;11.40;99.90
76120;DHT22;64852;48.092;-1.640;2023-02-01T02:52:44;11.20;99.90
76120;DHT22;64852;48.092;-1.640;2023-02-01T02:55:34;11.30;99.90
76120;DHT22;64852;48.092;-1.640;2023-02-01T02:58:03;11.30;99.90
76120;DHT22;64852;48.092;-1.640;2023-02-01T03:00:50;11.40;99.90
76120;DHT22;64852;48.092;-1.640;2023-02-01T03:03:38;11.60;99.90
76120;DHT22;64852;48.092;-1.640;2023-02-01T03:06:24;11.80;99.90
76120;DHT22;64852;48.092;-1.640;2023-02-01T03:08:50;11.90;99.90
76120;DHT22;64852;48.092;-1.640;2023-02-01T03:11:19;11.90;99.90
76120;DHT22;64852;48.092;-1.640;2023-02-01T03:18:46;12.00;99.90
76120;DHT22;64852;48.092;-1.640;2023-02-01T03:21:40;12.10;99.90
76120;DHT22;64852;48.092;-1.640;2023-02-01T03:24:18;12.10;99.90
76120;DHT22;64852;48.092;-1.640;2023-02-01T03:26:51;11.90;99.90
76120;DHT22;64852;48.092;-1.640;2023-02-01T03:29:27;11.80;99.90
76120;DHT22;64852;48.092;-1.640;2023-02-01T03:31:55;11.80;99.90
76120;DHT22;64852;48.092;-1.640;2023-02-01T03:34:21;11.60;99.90
76120;DHT22;64852;48.092;-1.640;2023-02-01T03:37:06;11.60;99.90
76120;DHT22;64852;48.092;-1.640;2023-02-01T03:42:06;11.50;99.90
76120;DHT22;64852;48.092;-1.640;2023-02-01T03:44:50;11.50;99.90
76120;DHT22;64852;48.092;-1.640;2023-02-01T03:47:21;11.60;99.90
76120;DHT22;64852;48.092;-1.640;2023-02-01T03:49:52;11.30;99.90
76120;DHT22;64852;48.092;-1.640;2023-02-01T03:52:26;11.40;99.90
76120;DHT22;64852;48.092;-1.640;2023-02-01T03:54:54;11.40;99.90
76120;DHT22;64852;48.092;-1.640;2023-02-01T03:57:26;11.30;99.90
76120;DHT22;64852;48.092;-1.640;2023-02-01T03:59:52;11.10;99.90
76120;DHT22;64852;48.092;-1.640;2023-02-01T04:02:17;11.00;99.90
76120;DHT22;64852;48.092;-1.640;2023-02-01T04:04:43;11.10;99.90
76120;DHT22;64852;48.092;-1.640;2023-02-01T04:07:09;11.10;99.90
76120;DHT22;64852;48.092;-1.640;2023-02-01T04:09:35;11.20;99.90
76120;DHT22;64852;48.092;-1.640;2023-02-01T04:12:00;11.20;99.90
76120;DHT22;64852;48.092;-1.640;2023-02-01T04:14:26;11.30;99.90
76120;DHT22;64852;48.092;-1.640;2023-02-01T04:16:52;11.30;99.90
76120;DHT22;64852;48.092;-1.640;2023-02-01T04:19:17;11.50;99.90
76120;DHT22;64852;48.092;-1.640;2023-02-01T04:21:43;11.60;99.90
76120;DHT22;64852;48.092;-1.640;2023-02-01T04:24:08;11.80;99.90
76120;DHT22;64852;48.092;-1.640;2023-02-01T04:26:34;11.80;99.90
76120;DHT22;64852;48.092;-1.640;2023-02-01T04:29:00;11.70;99.90
76120;DHT22;64852;48.092;-1.640;2023-02-01T04:31:25;11.60;99.90
76120;DHT22;64852;48.092;-1.640;2023-02-01T04:33:52;11.50;99.90
76120;DHT22;64852;48.092;-1.640;2023-02-01T04:36:19;11.50;99.90
76120;DHT22;64852;48.092;-1.640;2023-02-01T04:38:51;11.50;99.90
76120;DHT22;64852;48.092;-1.640;2023-02-01T04:41:17;11.60;99.90
76120;DHT22;64852;48.092;-1.640;2023-02-01T04:43:46;11.50;99.90
76120;DHT22;64852;48.092;-1.640;2023-02-01T04:46:12;11.40;99.90
76120;DHT22;64852;48.092;-1.640;2023-02-01T04:48:37;11.30;99.90
76120;DHT22;64852;48.092;-1.640;2023-02-01T04:51:03;11.20;99.90
76120;DHT22;64852;48.092;-1.640;2023-02-01T04:53:28;11.00;99.90
76120;DHT22;64852;48.092;-1.640;2023-02-01T04:55:55;11.00;99.90
76120;DHT22;64852;48.092;-1.640;2023-02-01T04:58:21;11.20;99.90
76120;DHT22;64852;48.092;-1.640;2023-02-01T05:00:46;11.40;99.90
76120;DHT22;64852;48.092;-1.640;2023-02-01T05:03:12;11.40;99.90
76120;DHT22;64852;48.092;-1.640;2023-02-01T05:05:37;11.40;99.90
76120;DHT22;64852;48.092;-1.640;2023-02-01T05:08:03;11.50;99.90
76120;DHT22;64852;48.092;-1.640;2023-02-01T05:10:29;11.40;99.90
76120;DHT22;64852;48.092;-1.640;2023-02-01T05:12:55;11.60;99.90
76120;DHT22;64852;48.092;-1.640;2023-02-01T05:15:39;11.50;99.90
76120;DHT22;64852;48.092;-1.640;2023-02-01T05:18:05;11.40;99.90
76120;DHT22;64852;48.092;-1.640;2023-02-01T05:20:30;11.40;99.90
76120;DHT22;64852;48.092;-1.640;2023-02-01T05:22:56;11.40;99.90
76120;DHT22;64852;48.092;-1.640;2023-02-01T05:25:21;11.30;99.90
76120;DHT22;64852;48.092;-1.640;2023-02-01T05:27:47;11.20;99.90
76120;DHT22;64852;48.092;-1.640;2023-02-01T05:30:13;11.10;99.90
76120;DHT22;64852;48.092;-1.640;2023-02-01T05:32:39;11.20;99.90
76120;DHT22;64852;48.092;-1.640;2023-02-01T05:35:05;11.30;99.90
76120;DHT22;64852;48.092;-1.640;2023-02-01T05:37:30;11.20;99.90
76120;DHT22;64852;48.092;-1.640;2023-02-01T05:39:56;11.40;99.90
76120;DHT22;64852;48.092;-1.640;2023-02-01T05:42:22;11.20;99.90
76120;DHT22;64852;48.092;-1.640;2023-02-01T05:44:47;11.10;99.90
76120;DHT22;64852;48.092;-1.640;2023-02-01T05:47:13;11.00;99.90
76120;DHT22;64852;48.092;-1.640;2023-02-01T05:49:39;10.90;99.90
76120;DHT22;64852;48.092;-1.640;2023-02-01T05:52:04;10.90;99.90
76120;DHT22;64852;48.092;-1.640;2023-02-01T05:54:30;11.10;99.90
76120;DHT22;64852;48.092;-1.640;2023-02-01T05:56:56;11.30;99.90
76120;DHT22;64852;48.092;-1.640;2023-02-01T05:59:21;11.20;99.90
76120;DHT22;64852;48.092;-1.640;2023-02-01T06:01:47;11.10;99.90
76120;DHT22;64852;48.092;-1.640;2023-02-01T06:04:13;11.20;99.90
76120;DHT22;64852;48.092;-1.640;2023-02-01T06:06:38;11.20;99.90
76120;DHT22;64852;48.092;-1.640;2023-02-01T06:09:04;11.50;99.90
76120;DHT22;64852;48.092;-1.640;2023-02-01T06:11:30;11.40;99.90
76120;DHT22;64852;48.092;-1.640;2023-02-01T06:13:55;11.50;99.90
76120;DHT22;64852;48.092;-1.640;2023-02-01T06:16:22;11.50;99.90
76120;DHT22;64852;48.092;-1.640;2023-02-01T06:18:48;11.30;99.90
76120;DHT22;64852;48.092;-1.640;2023-02-01T06:21:14;11.30;99.90
76120;DHT22;64852;48.092;-1.640;2023-02-01T06:23:49;11.30;99.90
76120;DHT22;64852;48.092;-1.640;2023-02-01T06:26:15;11.20;99.90
76120;DHT22;64852;48.092;-1.640;2023-02-01T06:28:42;11.00;99.90
76120;DHT22;64852;48.092;-1.640;2023-02-01T06:31:08;10.90;99.90
76120;DHT22;64852;48.092;-1.640;2023-02-01T06:33:34;10.80;99.90
76120;DHT22;64852;48.092;-1.640;2023-02-01T06:36:02;10.60;99.90
76120;DHT22;64852;48.092;-1.640;2023-02-01T06:38:29;10.70;99.90
76120;DHT22;64852;48.092;-1.640;2023-02-01T06:40:56;10.60;99.90
76120;DHT22;64852;48.092;-1.640;2023-02-01T06:43:23;10.60;99.90
76120;DHT22;64852;48.092;-1.640;2023-02-01T06:45:49;10.90;99.90
76120;DHT22;64852;48.092;-1.640;2023-02-01T06:48:15;10.10;99.90
76120;DHT22;64852;48.092;-1.640;2023-02-01T06:50:41;11.00;99.90
76120;DHT22;64852;48.092;-1.640;2023-02-01T06:53:06;11.10;99.90
76120;DHT22;64852;48.092;-1.640;2023-02-01T06:55:32;11.20;99.90
76120;DHT22;64852;48.092;-1.640;2023-02-01T06:57:57;11.20;99.90
76120;DHT22;64852;48.092;-1.640;2023-02-01T07:00:23;11.40;99.90
76120;DHT22;64852;48.092;-1.640;2023-02-01T07:02:49;11.40;99.90
76120;DHT22;64852;48.092;-1.640;2023-02-01T07:05:16;11.50;99.90
76120;DHT22;64852;48.092;-1.640;2023-02-01T07:07:42;11.40;99.90
76120;DHT22;64852;48.092;-1.640;2023-02-01T07:10:08;11.50;99.90
76120;DHT22;64852;48.092;-1.640;2023-02-01T07:12:34;11.50;99.90
76120;DHT22;64852;48.092;-1.640;2023-02-01T07:15:00;11.40;99.90
76120;DHT22;64852;48.092;-1.640;2023-02-01T07:17:27;11.20;99.90
76120;DHT22;64852;48.092;-1.640;2023-02-01T07:19:55;11.30;99.90
76120;DHT22;64852;48.092;-1.640;2023-02-01T07:22:20;11.20;99.90
76120;DHT22;64852;48.092;-1.640;2023-02-01T07:24:46;11.20;99.90
76120;DHT22;64852;48.092;-1.640;2023-02-01T07:27:12;11.30;99.90
76120;DHT22;64852;48.092;-1.640;2023-02-01T07:29:37;11.50;99.90
76120;DHT22;64852;48.092;-1.640;2023-02-01T07:32:03;11.50;99.90
76120;DHT22;64852;48.092;-1.640;2023-02-01T07:34:29;11.40;99.90
76120;DHT22;64852;48.092;-1.640;2023-02-01T07:36:56;11.40;99.90
76120;DHT22;64852;48.092;-1.640;2023-02-01T07:39:22;11.30;99.90
76120;DHT22;64852;48.092;-1.640;2023-02-01T07:41:48;11.40;99.90
76120;DHT22;64852;48.092;-1.640;2023-02-01T07:44:13;11.40;99.90
76120;DHT22;64852;48.092;-1.640;2023-02-01T07:46:39;11.30;99.90
76120;DHT22;64852;48.092;-1.640;2023-02-01T07:49:05;11.30;99.90
76120;DHT22;64852;48.092;-1.640;2023-02-01T07:51:31;11.30;99.90
76120;DHT22;64852;48.092;-1.640;2023-02-01T07:53:56;11.30;99.90
76120;DHT22;64852;48.092;-1.640;2023-02-01T07:56:22;11.40;99.90
76120;DHT22;64852;48.092;-1.640;2023-02-01T07:58:53;11.40;99.90
76120;DHT22;64852;48.092;-1.640;2023-02-01T08:01:22;11.40;99.90
76120;DHT22;64852;48.092;-1.640;2023-02-01T08:04:00;11.50;99.90
76120;DHT22;64852;48.092;-1.640;2023-02-01T08:06:27;11.40;99.90
76120;DHT22;64852;48.092;-1.640;2023-02-01T08:08:53;11.50;99.90
76120;DHT22;64852;48.092;-1.640;2023-02-01T08:11:20;11.50;99.90
76120;DHT22;64852;48.092;-1.640;2023-02-01T08:13:46;11.50;99.90
76120;DHT22;64852;48.092;-1.640;2023-02-01T08:16:14;11.50;99.90
76120;DHT22;64852;48.092;-1.640;2023-02-01T08:18:40;11.60;99.90
76120;DHT22;64852;48.092;-1.640;2023-02-01T08:21:13;11.40;99.90
76120;DHT22;64852;48.092;-1.640;2023-02-01T08:23:40;11.30;99.90
76120;DHT22;64852;48.092;-1.640;2023-02-01T08:26:17;11.40;99.90
76120;DHT22;64852;48.092;-1.640;2023-02-01T08:28:46;11.30;99.90
76120;DHT22;64852;48.092;-1.640;2023-02-01T08:31:14;11.40;99.90
76120;DHT22;64852;48.092;-1.640;2023-02-01T08:33:43;11.50;99.90
76120;DHT22;64852;48.092;-1.640;2023-02-01T08:36:10;11.40;99.90
76120;DHT22;64852;48.092;-1.640;2023-02-01T08:38:38;11.50;99.90
76120;DHT22;64852;48.092;-1.640;2023-02-01T08:41:09;11.70;99.90
76120;DHT22;64852;48.092;-1.640;2023-02-01T08:43:36;11.80;99.90
76120;DHT22;64852;48.092;-1.640;2023-02-01T08:46:03;11.70;99.90
76120;DHT22;64852;48.092;-1.640;2023-02-01T08:48:28;11.70;99.90
76120;DHT22;64852;48.092;-1.640;2023-02-01T08:50:54;11.40;99.90
76120;DHT22;64852;48.092;-1.640;2023-02-01T08:53:20;11.30;99.90
76120;DHT22;64852;48.092;-1.640;2023-02-01T08:55:46;11.40;99.90
76120;DHT22;64852;48.092;-1.640;2023-02-01T08:58:12;11.40;99.90
76120;DHT22;64852;48.092;-1.640;2023-02-01T09:00:39;11.40;99.90
76120;DHT22;64852;48.092;-1.640;2023-02-01T09:03:05;11.40;99.90
76120;DHT22;64852;48.092;-1.640;2023-02-01T09:05:31;11.30;99.90
76120;DHT22;64852;48.092;-1.640;2023-02-01T09:07:56;11.30;99.90
76120;DHT22;64852;48.092;-1.640;2023-02-01T09:10:22;11.30;99.90
76120;DHT22;64852;48.092;-1.640;2023-02-01T09:12:48;11.20;99.90
76120;DHT22;64852;48.092;-1.640;2023-02-01T09:15:13;11.00;99.90
76120;DHT22;64852;48.092;-1.640;2023-02-01T09:17:39;11.10;99.90
76120;DHT22;64852;48.092;-1.640;2023-02-01T09:20:08;11.20;99.90
76120;DHT22;64852;48.092;-1.640;2023-02-01T09:22:34;11.10;99.90
76120;DHT22;64852;48.092;-1.640;2023-02-01T09:24:59;11.30;99.90
76120;DHT22;64852;48.092;-1.640;2023-02-01T09:27:25;11.30;99.90
76120;DHT22;64852;48.092;-1.640;2023-02-01T09:29:50;11.20;99.90
76120;DHT22;64852;48.092;-1.640;2023-02-01T09:32:22;11.20;99.90
76120;DHT22;64852;48.092;-1.640;2023-02-01T09:34:49;11.30;99.90
76120;DHT22;64852;48.092;-1.640;2023-02-01T09:37:14;11.20;99.90
76120;DHT22;64852;48.092;-1.640;2023-02-01T09:39:40;11.30;99.90
76120;DHT22;64852;48.092;-1.640;2023-02-01T09:48:15;11.50;99.90
76120;DHT22;64852;48.092;-1.640;2023-02-01T09:50:46;11.60;99.90
76120;DHT22;64852;48.092;-1.640;2023-02-01T09:53:32;11.90;99.90
76120;DHT22;64852;48.092;-1.640;2023-02-01T09:56:09;12.00;99.90
76120;DHT22;64852;48.092;-1.640;2023-02-01T09:58:41;12.10;99.90
76120;DHT22;64852;48.092;-1.640;2023-02-01T10:01:21;12.10;99.90
76120;DHT22;64852;48.092;-1.640;2023-02-01T10:03:48;12.00;99.90
76120;DHT22;64852;48.092;-1.640;2023-02-01T10:11:58;11.80;99.90
76120;DHT22;64852;48.092;-1.640;2023-02-01T10:20:07;11.60;99.90
76120;DHT22;64852;48.092;-1.640;2023-02-01T10:22:46;11.60;99.90
76120;DHT22;64852;48.092;-1.640;2023-02-01T10:27:50;11.70;99.90
76120;DHT22;64852;48.092;-1.640;2023-02-01T10:30:20;11.70;99.90
76120;DHT22;64852;48.092;-1.640;2023-02-01T10:33:12;12.00;99.90
76120;DHT22;64852;48.092;-1.640;2023-02-01T10:35:36;12.20;99.90
76120;DHT22;64852;48.092;-1.640;2023-02-01T10:38:11;12.30;99.90
76120;DHT22;64852;48.092;-1.640;2023-02-01T10:40:41;12.20;99.90
76120;DHT22;64852;48.092;-1.640;2023-02-01T10:43:09;12.10;99.90
76120;DHT22;64852;48.092;-1.640;2023-02-01T10:45:35;12.30;99.90
76120;DHT22;64852;48.092;-1.640;2023-02-01T10:48:03;12.20;99.90
76120;DHT22;64852;48.092;-1.640;2023-02-01T10:50:37;12.20;99.90
76120;DHT22;64852;48.092;-1.640;2023-02-01T10:53:17;12.40;99.90
76120;DHT22;64852;48.092;-1.640;2023-02-01T10:58:33;12.70;99.90
76120;DHT22;64852;48.092;-1.640;2023-02-01T11:01:06;12.70;99.90
76120;DHT22;64852;48.092;-1.640;2023-02-01T11:03:39;12.10;99.90
76120;DHT22;64852;48.092;-1.640;2023-02-01T11:08:51;11.60;99.90
76120;DHT22;64852;48.092;-1.640;2023-02-01T11:11:18;11.50;99.90
76120;DHT22;64852;48.092;-1.640;2023-02-01T11:13:44;11.70;99.90
76120;DHT22;64852;48.092;-1.640;2023-02-01T11:16:14;11.80;99.90
76120;DHT22;64852;48.092;-1.640;2023-02-01T11:18:41;11.50;99.90
76120;DHT22;64852;48.092;-1.640;2023-02-01T11:21:08;11.50;99.90
76120;DHT22;64852;48.092;-1.640;2023-02-01T11:23:43;11.90;99.90
76120;DHT22;64852;48.092;-1.640;2023-02-01T11:28:39;12.20;99.90
76120;DHT22;64852;48.092;-1.640;2023-02-01T11:31:10;12.30;99.90
76120;DHT22;64852;48.092;-1.640;2023-02-01T11:33:38;12.00;99.90
76120;DHT22;64852;48.092;-1.640;2023-02-01T11:36:16;12.30;99.90
76120;DHT22;64852;48.092;-1.640;2023-02-01T11:39:33;12.00;99.90
76120;DHT22;64852;48.092;-1.640;2023-02-01T11:46:56;12.00;99.90
76120;DHT22;64852;48.092;-1.640;2023-02-01T11:49:33;12.30;99.90
76120;DHT22;64852;48.092;-1.640;2023-02-01T11:52:10;12.50;99.90
76120;DHT22;64852;48.092;-1.640;2023-02-01T11:57:43;12.30;99.90
76120;DHT22;64852;48.092;-1.640;2023-02-01T12:00:42;12.40;99.90
76120;DHT22;64852;48.092;-1.640;2023-02-01T12:05:59;12.20;99.90
76120;DHT22;64852;48.092;-1.640;2023-02-01T12:09:02;12.30;99.90
76120;DHT22;64852;48.092;-1.640;2023-02-01T12:22:29;12.80;99.90
76120;DHT22;64852;48.092;-1.640;2023-02-01T12:44:52;13.30;98.90
76120;DHT22;64852;48.092;-1.640;2023-02-01T12:47:33;13.30;97.00
76120;DHT22;64852;48.092;-1.640;2023-02-01T12:50:14;13.00;95.20
76120;DHT22;64852;48.092;-1.640;2023-02-01T12:52:52;12.80;96.20
76120;DHT22;64852;48.092;-1.640;2023-02-01T12:55:25;12.70;93.40
76120;DHT22;64852;48.092;-1.640;2023-02-01T12:58:45;12.40;96.70
76120;DHT22;64852;48.092;-1.640;2023-02-01T13:01:06;12.50;97.90
76120;DHT22;64852;48.092;-1.640;2023-02-01T13:03:42;12.30;93.90
76120;DHT22;64852;48.092;-1.640;2023-02-01T13:06:15;11.90;96.50
76120;DHT22;64852;48.092;-1.640;2023-02-01T13:11:36;11.90;99.30
76120;DHT22;64852;48.092;-1.640;2023-02-01T13:14:33;14.10;99.90
76120;DHT22;64852;48.092;-1.640;2023-02-01T13:17:14;12.00;99.90
76120;DHT22;64852;48.092;-1.640;2023-02-01T13:22:34;12.50;98.50
76120;DHT22;64852;48.092;-1.640;2023-02-01T13:25:04;12.30;98.60
76120;DHT22;64852;48.092;-1.640;2023-02-01T13:27:36;12.50;99.90
76120;DHT22;64852;48.092;-1.640;2023-02-01T13:35:43;12.60;98.40
76120;DHT22;64852;48.092;-1.640;2023-02-01T13:43:38;12.40;99.90
76120;DHT22;64852;48.092;-1.640;2023-02-01T13:46:08;12.20;99.90
76120;DHT22;64852;48.092;-1.640;2023-02-01T13:48:46;12.30;99.90
76120;DHT22;64852;48.092;-1.640;2023-02-01T13:51:13;12.30;99.90
76120;DHT22;64852;48.092;-1.640;2023-02-01T13:53:45;12.30;99.90
76120;DHT22;64852;48.092;-1.640;2023-02-01T13:56:17;12.10;99.90
76120;DHT22;64852;48.092;-1.640;2023-02-01T13:58:45;12.10;99.90
76120;DHT22;64852;48.092;-1.640;2023-02-01T14:04:03;12.30;99.90
76120;DHT22;64852;48.092;-1.640;2023-02-01T14:11:46;12.10;99.90
76120;DHT22;64852;48.092;-1.640;2023-02-01T14:19:27;12.30;99.90
76120;DHT22;64852;48.092;-1.640;2023-02-01T14:21:59;12.20;99.90
76120;DHT22;64852;48.092;-1.640;2023-02-01T14:24:32;12.10;99.90
76120;DHT22;64852;48.092;-1.640;2023-02-01T14:29:42;11.80;99.90
76120;DHT22;64852;48.092;-1.640;2023-02-01T14:32:18;12.10;99.90
76120;DHT22;64852;48.092;-1.640;2023-02-01T14:44:45;12.00;99.90
76120;DHT22;64852;48.092;-1.640;2023-02-01T14:53:03;12.10;99.90
76120;DHT22;64852;48.092;-1.640;2023-02-01T15:01:13;12.10;99.90
76120;DHT22;64852;48.092;-1.640;2023-02-01T15:06:32;12.20;99.90
76120;DHT22;64852;48.092;-1.640;2023-02-01T15:09:07;12.30;99.90
76120;DHT22;64852;48.092;-1.640;2023-02-01T15:12:04;12.10;99.90
76120;DHT22;64852;48.092;-1.640;2023-02-01T15:14:34;12.20;99.90
76120;DHT22;64852;48.092;-1.640;2023-02-01T15:17:00;12.50;99.90
76120;DHT22;64852;48.092;-1.640;2023-02-01T15:19:28;12.70;99.90
76120;DHT22;64852;48.092;-1.640;2023-02-01T15:21:56;12.70;99.90
76120;DHT22;64852;48.092;-1.640;2023-02-01T15:24:27;12.90;99.90
76120;DHT22;64852;48.092;-1.640;2023-02-01T15:26:54;13.00;99.90
76120;DHT22;64852;48.092;-1.640;2023-02-01T15:29:23;13.10;99.90
76120;DHT22;64852;48.092;-1.640;2023-02-01T15:31:54;12.90;99.90
76120;DHT22;64852;48.092;-1.640;2023-02-01T15:34:23;12.70;99.90
76120;DHT22;64852;48.092;-1.640;2023-02-01T15:36:49;12.30;99.90
76120;DHT22;64852;48.092;-1.640;2023-02-01T15:42:12;12.60;99.90
76120;DHT22;64852;48.092;-1.640;2023-02-01T15:44:45;12.70;99.90
76120;DHT22;64852;48.092;-1.640;2023-02-01T15:47:16;12.60;99.90
76120;DHT22;64852;48.092;-1.640;2023-02-01T15:49:45;12.50;99.90
76120;DHT22;64852;48.092;-1.640;2023-02-01T15:52:37;12.70;99.90
76120;DHT22;64852;48.092;-1.640;2023-02-01T15:55:07;12.80;99.90
76120;DHT22;64852;48.092;-1.640;2023-02-01T15:57:36;12.40;99.90
76120;DHT22;64852;48.092;-1.640;2023-02-01T16:00:07;12.10;99.90
76120;DHT22;64852;48.092;-1.640;2023-02-01T16:02:41;12.10;99.90
76120;DHT22;64852;48.092;-1.640;2023-02-01T16:05:35;12.20;99.90
76120;DHT22;64852;48.092;-1.640;2023-02-01T16:08:23;12.50;99.90
76120;DHT22;64852;48.092;-1.640;2023-02-01T16:10:52;12.40;99.90
76120;DHT22;64852;48.092;-1.640;2023-02-01T16:13:19;12.50;99.90
76120;DHT22;64852;48.092;-1.640;2023-02-01T16:15:46;12.60;99.90
76120;DHT22;64852;48.092;-1.640;2023-02-01T16:18:12;12.60;99.90
76120;DHT22;64852;48.092;-1.640;2023-02-01T16:20:40;11.10;99.90
76120;DHT22;64852;48.092;-1.640;2023-02-01T16:23:07;12.70;99.90
76120;DHT22;64852;48.092;-1.640;2023-02-01T16:25:33;12.70;99.90
76120;DHT22;64852;48.092;-1.640;2023-02-01T16:27:59;12.80;99.90
76120;DHT22;64852;48.092;-1.640;2023-02-01T16:30:25;12.90;99.90
76120;DHT22;64852;48.092;-1.640;2023-02-01T16:32:58;13.00;99.90
76120;DHT22;64852;48.092;-1.640;2023-02-01T16:35:27;13.00;99.90
76120;DHT22;64852;48.092;-1.640;2023-02-01T16:37:53;12.80;99.90
76120;DHT22;64852;48.092;-1.640;2023-02-01T16:40:20;13.00;99.90
76120;DHT22;64852;48.092;-1.640;2023-02-01T16:42:51;12.90;99.90
76120;DHT22;64852;48.092;-1.640;2023-02-01T16:45:17;13.00;99.90
76120;DHT22;64852;48.092;-1.640;2023-02-01T16:47:48;12.80;99.90
76120;DHT22;64852;48.092;-1.640;2023-02-01T16:50:21;12.80;99.90
76120;DHT22;64852;48.092;-1.640;2023-02-01T16:52:47;12.70;99.90
76120;DHT22;64852;48.092;-1.640;2023-02-01T16:55:15;12.70;99.90
76120;DHT22;64852;48.092;-1.640;2023-02-01T16:57:41;12.80;99.90
76120;DHT22;64852;48.092;-1.640;2023-02-01T17:00:08;12.90;99.90
76120;DHT22;64852;48.092;-1.640;2023-02-01T17:02:34;12.80;99.90
76120;DHT22;64852;48.092;-1.640;2023-02-01T17:04:59;12.80;99.90
76120;DHT22;64852;48.092;-1.640;2023-02-01T17:07:25;12.80;99.90
76120;DHT22;64852;48.092;-1.640;2023-02-01T17:09:52;12.80;99.90
76120;DHT22;64852;48.092;-1.640;2023-02-01T17:12:25;12.70;99.90
76120;DHT22;64852;48.092;-1.640;2023-02-01T17:14:51;12.70;99.90
76120;DHT22;64852;48.092;-1.640;2023-02-01T17:17:18;12.60;99.90
76120;DHT22;64852;48.092;-1.640;2023-02-01T17:19:47;12.40;99.90
76120;DHT22;64852;48.092;-1.640;2023-02-01T17:22:15;12.30;99.90
76120;DHT22;64852;48.092;-1.640;2023-02-01T17:24:41;12.50;99.90
76120;DHT22;64852;48.092;-1.640;2023-02-01T17:27:07;12.40;99.90
76120;DHT22;64852;48.092;-1.640;2023-02-01T17:29:32;12.50;99.90
76120;DHT22;64852;48.092;-1.640;2023-02-01T17:31:58;12.40;99.90
76120;DHT22;64852;48.092;-1.640;2023-02-01T17:34:25;12.50;99.90
76120;DHT22;64852;48.092;-1.640;2023-02-01T17:36:51;12.70;99.90
76120;DHT22;64852;48.092;-1.640;2023-02-01T17:39:17;12.70;99.90
76120;DHT22;64852;48.092;-1.640;2023-02-01T17:42:10;12.70;99.90
76120;DHT22;64852;48.092;-1.640;2023-02-01T17:44:36;12.90;99.90
76120;DHT22;64852;48.092;-1.640;2023-02-01T17:47:02;12.90;99.90
76120;DHT22;64852;48.092;-1.640;2023-02-01T17:49:28;12.40;99.90
76120;DHT22;64852;48.092;-1.640;2023-02-01T17:51:54;12.40;99.90
76120;DHT22;64852;48.092;-1.640;2023-02-01T17:54:20;12.30;99.90
76120;DHT22;64852;48.092;-1.640;2023-02-01T17:56:46;12.30;99.90
76120;DHT22;64852;48.092;-1.640;2023-02-01T17:59:15;12.40;99.90
76120;DHT22;64852;48.092;-1.640;2023-02-01T18:01:41;12.50;99.90
76120;DHT22;64852;48.092;-1.640;2023-02-01T18:04:15;12.50;99.90
76120;DHT22;64852;48.092;-1.640;2023-02-01T18:06:41;12.50;99.90
76120;DHT22;64852;48.092;-1.640;2023-02-01T18:09:07;12.40;99.90